createdAt,value
2023-04-26T03:00:14.110Z,17.00
2023-04-26T03:02:41.914Z,18.77
2023-04-26T07:00:54.693Z,7.55
2023-04-26T07:03:21.866Z,6.18
2023-04-26T07:05:48.819Z,7.03
2023-04-26T07:08:15.930Z,6.25
2023-04-26T07:10:42.963Z,7.00
2023-04-26T08:36:43.892Z,7.30
2023-04-26T08:39:12.348Z,8.55
2023-04-26T08:51:53.966Z,6.88
2023-04-26T08:54:21.970Z,4.93
2023-04-26T08:56:49.448Z,5.78
2023-04-26T08:59:16.478Z,6.20
2023-04-26T09:01:44.412Z,6.97
2023-04-26T09:04:12.442Z,5.60
2023-04-26T09:06:39.768Z,4.70
2023-04-26T09:09:08.852Z,6.95
2023-04-26T09:11:55.378Z,4.05
2023-04-26T09:14:22.664Z,4.82
2023-04-26T09:16:49.871Z,4.93
2023-04-26T09:19:17.014Z,4.47
2023-04-26T09:21:46.451Z,4.35
2023-04-26T09:24:14.130Z,3.72
2023-04-26T09:26:41.996Z,4.80
2023-04-26T09:29:13.769Z,4.38
2023-04-26T09:31:42.091Z,4.03
2023-04-26T09:34:10.727Z,3.55
2023-04-26T09:36:48.760Z,2.97
2023-04-26T09:39:29.446Z,4.38
2023-04-26T09:41:57.458Z,4.50
2023-04-26T09:44:25.231Z,5.63
2023-04-26T09:47:10.308Z,5.88
2023-04-26T09:49:51.998Z,3.63
2023-04-26T09:52:20.167Z,3.63
2023-04-26T09:54:52.421Z,3.83
2023-04-26T09:57:20.766Z,4.72
2023-04-26T09:59:54.968Z,3.25
2023-04-26T10:02:26.594Z,3.13
2023-04-26T10:04:55.720Z,3.20
2023-04-26T10:07:25.966Z,5.40
2023-04-26T10:09:53.758Z,3.30
2023-04-26T12:08:33.664Z,2.55
2023-04-26T12:11:02.250Z,5.50
2023-04-26T12:13:30.618Z,2.35
2023-04-26T12:15:57.741Z,2.80
2023-04-26T12:18:33.218Z,3.17
2023-04-26T12:21:01.434Z,3.65
2023-04-26T12:23:37.460Z,3.08
2023-04-26T12:26:05.217Z,2.17
2023-04-26T12:28:32.913Z,2.40
2023-04-26T12:31:01.587Z,2.80
2023-04-26T12:33:28.687Z,1.67
2023-04-26T12:35:57.714Z,3.00
2023-04-26T12:38:24.677Z,4.25
2023-04-26T12:40:51.940Z,2.78
2023-04-26T12:43:19.896Z,2.33
